Hovedside
METAR-TAF:

METAR-TAF

Lufthavner :

Ålesund lufthavn. Vigra

Ålesund, Norge

breddegrad: 62-34N, lengdegrad: 006-07E, høyde over havet: 2 m

Gjeldene værobservasjon

Denne rapporten ble laget for 14 minutter siden, klokken 01:20 UTC
Vind 5 kt fra Nord-nordvest, skiftende mellom Vest-nordvest og Nord
Temperatur 4°C
Luftfuktighet 81%
Trykk 1022 hPa
Sikt 10 km eller mer

METAR: ENAL 110120Z AUTO 33005KT 300V360 9999 SCT015/// 04/01 Q1022

Tid: 02:34 (01:34 UTC)

Varsel

Denne rapporten ble laget for 8 timer og 34 minutter siden, klokken 17:00 UTC
Varsel gyldig fra 10. klokken 18 UTC til 10. klokken 23 UTC
Vind 15 kt fra Nord-nordvest
Sikt 10 km eller mer
Få skyer i en høyde av 2500 ft, Tårnskyer (cumulus).
Spredte skyer i en høyde av 4000 ft
lette regnbyger
Midlertidig
fra 10. klokken 18 UTC til 10. klokken 21 UTC
Vind 20 kt fra Nord med vindkast opp mot 30 kt

TAF: ENAL 101700Z 1018/1023 33015KT 9999 -SHRA FEW025TCU SCT040 TEMPO 1018/1021 35020G30KT

Værobservasjoner og værvarsel for over 4000 flyplasser (METAR- og TAF-rapporter).

Tilgjengelige stasjoner er representert av de røde og gule prikkene på kartet.

Hold musepekeren over prikken for å se navnet på stasjonen.

Klikk så for å se værobservasjoner og -varsler.

For å forandre kartet kan du klikke på den grønne knappen med svart kryss for å zoome inn, på den grønne knappen med strek for å zoome ut, eller på de grønne pilene for å se tilstøtende kart.


METAR-TAF: